sensor_id;sensor_type;location;lat;lon;timestamp;pressure;altitude;pressure_sealevel;temperature;humidity
18167;BME280;9208;42.688;23.404;2023-05-12T00:00:39;95750.41;;;11.59;100.00
18167;BME280;9208;42.688;23.404;2023-05-12T00:03:04;95759.72;;;11.62;100.00
18167;BME280;9208;42.688;23.404;2023-05-12T00:05:30;95741.81;;;11.52;100.00
18167;BME280;9208;42.688;23.404;2023-05-12T00:07:55;95750.16;;;11.57;100.00
18167;BME280;9208;42.688;23.404;2023-05-12T00:10:21;95756.38;;;11.58;100.00
18167;BME280;9208;42.688;23.404;2023-05-12T00:12:47;95749.84;;;11.55;100.00
18167;BME280;9208;42.688;23.404;2023-05-12T00:15:12;95756.69;;;11.60;100.00
18167;BME280;9208;42.688;23.404;2023-05-12T00:17:38;95748.03;;;11.52;100.00
18167;BME280;9208;42.688;23.404;2023-05-12T00:20:04;95752.22;;;11.48;100.00
18167;BME280;9208;42.688;23.404;2023-05-12T00:22:30;95750.44;;;11.45;100.00
18167;BME280;9208;42.688;23.404;2023-05-12T00:24:56;95753.53;;;11.52;100.00
18167;BME280;9208;42.688;23.404;2023-05-12T00:27:21;95731.31;;;11.36;100.00
18167;BME280;9208;42.688;23.404;2023-05-12T00:29:47;95749.03;;;11.49;100.00
18167;BME280;9208;42.688;23.404;2023-05-12T00:32:12;95758.66;;;11.45;100.00
18167;BME280;9208;42.688;23.404;2023-05-12T00:34:38;95750.44;;;11.45;100.00
18167;BME280;9208;42.688;23.404;2023-05-12T00:37:04;95745.03;;;11.36;100.00
18167;BME280;9208;42.688;23.404;2023-05-12T00:39:29;95751.22;;;11.31;100.00
18167;BME280;9208;42.688;23.404;2023-05-12T00:41:56;95752.34;;;11.24;100.00
18167;BME280;9208;42.688;23.404;2023-05-12T00:44:22;95758.03;;;11.21;100.00
18167;BME280;9208;42.688;23.404;2023-05-12T00:46:48;95751.88;;;11.26;100.00
18167;BME280;9208;42.688;23.404;2023-05-12T00:49:14;95753.50;;;11.18;100.00
18167;BME280;9208;42.688;23.404;2023-05-12T00:51:39;95753.78;;;11.20;100.00
18167;BME280;9208;42.688;23.404;2023-05-12T00:54:05;95759.75;;;11.18;100.00
18167;BME280;9208;42.688;23.404;2023-05-12T00:56:31;95761.16;;;11.14;100.00
18167;BME280;9208;42.688;23.404;2023-05-12T00:58:59;95760.97;;;11.17;100.00
18167;BME280;9208;42.688;23.404;2023-05-12T01:01:25;95760.47;;;11.19;100.00
18167;BME280;9208;42.688;23.404;2023-05-12T01:03:51;95763.91;;;11.14;100.00
18167;BME280;9208;42.688;23.404;2023-05-12T01:06:22;95759.81;;;10.95;100.00
18167;BME280;9208;42.688;23.404;2023-05-12T01:08:51;95758.31;;;10.94;100.00
18167;BME280;9208;42.688;23.404;2023-05-12T01:11:17;95768.16;;;11.00;100.00
18167;BME280;9208;42.688;23.404;2023-05-12T01:13:43;95770.34;;;11.11;100.00
18167;BME280;9208;42.688;23.404;2023-05-12T01:16:12;95763.41;;;11.01;100.00
18167;BME280;9208;42.688;23.404;2023-05-12T01:18:42;95768.44;;;11.02;100.00
18167;BME280;9208;42.688;23.404;2023-05-12T01:21:09;95756.50;;;10.91;100.00
18167;BME280;9208;42.688;23.404;2023-05-12T01:23:39;95758.50;;;10.90;100.00
18167;BME280;9208;42.688;23.404;2023-05-12T01:26:09;95760.59;;;10.95;100.00
18167;BME280;9208;42.688;23.404;2023-05-12T01:28:36;95768.91;;;10.86;100.00
18167;BME280;9208;42.688;23.404;2023-05-12T01:31:05;95779.88;;;10.86;100.00
18167;BME280;9208;42.688;23.404;2023-05-12T01:33:31;95769.66;;;10.87;100.00
18167;BME280;9208;42.688;23.404;2023-05-12T01:35:57;95758.09;;;10.83;100.00
18167;BME280;9208;42.688;23.404;2023-05-12T01:38:22;95769.16;;;10.74;100.00
18167;BME280;9208;42.688;23.404;2023-05-12T01:40:48;95767.06;;;10.69;100.00
18167;BME280;9208;42.688;23.404;2023-05-12T01:43:13;95765.22;;;10.75;100.00
18167;BME280;9208;42.688;23.404;2023-05-12T01:45:39;95740.19;;;10.58;100.00
18167;BME280;9208;42.688;23.404;2023-05-12T01:48:04;95762.63;;;10.71;100.00
18167;BME280;9208;42.688;23.404;2023-05-12T01:50:29;95765.28;;;10.66;100.00
18167;BME280;9208;42.688;23.404;2023-05-12T01:52:55;95766.88;;;10.58;100.00
18167;BME280;9208;42.688;23.404;2023-05-12T01:55:20;95768.13;;;10.57;100.00
18167;BME280;9208;42.688;23.404;2023-05-12T01:57:46;95767.91;;;10.60;100.00
18167;BME280;9208;42.688;23.404;2023-05-12T02:00:11;95767.69;;;10.49;100.00
18167;BME280;9208;42.688;23.404;2023-05-12T02:02:37;95772.06;;;10.56;100.00
18167;BME280;9208;42.688;23.404;2023-05-12T02:05:03;95768.84;;;10.57;100.00
18167;BME280;9208;42.688;23.404;2023-05-12T02:07:28;95764.22;;;10.49;100.00
18167;BME280;9208;42.688;23.404;2023-05-12T02:09:54;95766.19;;;10.48;100.00
18167;BME280;9208;42.688;23.404;2023-05-12T02:12:19;95771.84;;;10.45;100.00
18167;BME280;9208;42.688;23.404;2023-05-12T02:14:45;95769.84;;;10.31;100.00
18167;BME280;9208;42.688;23.404;2023-05-12T02:17:10;95770.13;;;10.32;100.00
18167;BME280;9208;42.688;23.404;2023-05-12T02:19:35;95774.38;;;10.34;100.00
18167;BME280;9208;42.688;23.404;2023-05-12T02:22:01;95779.03;;;10.18;100.00
18167;BME280;9208;42.688;23.404;2023-05-12T02:24:26;95773.88;;;10.21;100.00
18167;BME280;9208;42.688;23.404;2023-05-12T02:26:52;95772.19;;;10.23;100.00
18167;BME280;9208;42.688;23.404;2023-05-12T02:29:17;95767.44;;;10.23;100.00
18167;BME280;9208;42.688;23.404;2023-05-12T02:31:43;95765.13;;;10.07;100.00
18167;BME280;9208;42.688;23.404;2023-05-12T02:34:08;95768.59;;;10.08;100.00
18167;BME280;9208;42.688;23.404;2023-05-12T02:36:34;95761.78;;;10.03;100.00
18167;BME280;9208;42.688;23.404;2023-05-12T02:38:59;95758.19;;;9.88;100.00
18167;BME280;9208;42.688;23.404;2023-05-12T02:41:24;95757.78;;;9.81;100.00
18167;BME280;9208;42.688;23.404;2023-05-12T02:43:50;95754.94;;;9.75;100.00
18167;BME280;9208;42.688;23.404;2023-05-12T02:46:16;95763.16;;;9.75;100.00
18167;BME280;9208;42.688;23.404;2023-05-12T02:48:41;95765.13;;;9.75;100.00
18167;BME280;9208;42.688;23.404;2023-05-12T02:51:07;95759.31;;;9.82;100.00
18167;BME280;9208;42.688;23.404;2023-05-12T02:53:32;95754.19;;;9.75;100.00
18167;BME280;9208;42.688;23.404;2023-05-12T02:55:57;95758.72;;;9.78;100.00
18167;BME280;9208;42.688;23.404;2023-05-12T02:58:23;95758.06;;;9.59;100.00
18167;BME280;9208;42.688;23.404;2023-05-12T03:00:49;95750.91;;;9.62;100.00
18167;BME280;9208;42.688;23.404;2023-05-12T03:03:14;95752.41;;;9.63;100.00
18167;BME280;9208;42.688;23.404;2023-05-12T03:05:39;95751.13;;;9.49;100.00
18167;BME280;9208;42.688;23.404;2023-05-12T03:08:05;95755.25;;;9.36;100.00
18167;BME280;9208;42.688;23.404;2023-05-12T03:10:30;95758.56;;;9.49;100.00
18167;BME280;9208;42.688;23.404;2023-05-12T03:12:56;95761.81;;;9.29;100.00
18167;BME280;9208;42.688;23.404;2023-05-12T03:15:21;95764.28;;;9.27;100.00
18167;BME280;9208;42.688;23.404;2023-05-12T03:17:47;95762.41;;;9.33;100.00
18167;BME280;9208;42.688;23.404;2023-05-12T03:20:12;95763.00;;;9.37;100.00
18167;BME280;9208;42.688;23.404;2023-05-12T03:22:38;95764.03;;;9.49;100.00
18167;BME280;9208;42.688;23.404;2023-05-12T03:25:03;95754.53;;;9.35;100.00
18167;BME280;9208;42.688;23.404;2023-05-12T03:27:30;95761.81;;;9.29;100.00
18167;BME280;9208;42.688;23.404;2023-05-12T03:29:57;95761.81;;;9.29;100.00
18167;BME280;9208;42.688;23.404;2023-05-12T03:32:25;95767.19;;;9.24;100.00
18167;BME280;9208;42.688;23.404;2023-05-12T03:34:50;95766.38;;;9.32;100.00
18167;BME280;9208;42.688;23.404;2023-05-12T03:37:15;95755.94;;;9.22;100.00
18167;BME280;9208;42.688;23.404;2023-05-12T03:39:41;95777.00;;;9.39;100.00
18167;BME280;9208;42.688;23.404;2023-05-12T03:42:06;95782.00;;;9.41;100.00
18167;BME280;9208;42.688;23.404;2023-05-12T03:44:32;95787.97;;;9.39;100.00
18167;BME280;9208;42.688;23.404;2023-05-12T03:46:57;95787.00;;;9.42;100.00
18167;BME280;9208;42.688;23.404;2023-05-12T03:49:22;95784.19;;;9.60;100.00
18167;BME280;9208;42.688;23.404;2023-05-12T03:51:48;95788.63;;;9.58;100.00
18167;BME280;9208;42.688;23.404;2023-05-12T03:54:13;95784.72;;;9.41;100.00
18167;BME280;9208;42.688;23.404;2023-05-12T03:56:39;95777.00;;;9.39;100.00
18167;BME280;9208;42.688;23.404;2023-05-12T03:59:04;95781.22;;;9.49;100.00
18167;BME280;9208;42.688;23.404;2023-05-12T04:01:30;95763.00;;;9.37;100.00
18167;BME280;9208;42.688;23.404;2023-05-12T04:03:56;95781.09;;;9.44;100.00
18167;BME280;9208;42.688;23.404;2023-05-12T04:06:21;95782.16;;;9.37;100.00
18167;BME280;9208;42.688;23.404;2023-05-12T04:08:46;95785.19;;;9.48;100.00
18167;BME280;9208;42.688;23.404;2023-05-12T04:11:12;95791.22;;;9.52;100.00
18167;BME280;9208;42.688;23.404;2023-05-12T04:13:38;95790.44;;;9.61;100.00
18167;BME280;9208;42.688;23.404;2023-05-12T04:16:03;95785.31;;;9.45;100.00
18167;BME280;9208;42.688;23.404;2023-05-12T04:18:29;95794.88;;;9.58;100.00
18167;BME280;9208;42.688;23.404;2023-05-12T04:20:55;95801.56;;;9.57;100.00
18167;BME280;9208;42.688;23.404;2023-05-12T04:23:21;95799.84;;;9.69;100.00
18167;BME280;9208;42.688;23.404;2023-05-12T04:25:47;95795.59;;;9.59;100.00
18167;BME280;9208;42.688;23.404;2023-05-12T04:28:12;95794.06;;;9.67;100.00
18167;BME280;9208;42.688;23.404;2023-05-12T04:30:39;95792.72;;;9.62;100.00
18167;BME280;9208;42.688;23.404;2023-05-12T04:33:05;95782.88;;;9.56;100.00
18167;BME280;9208;42.688;23.404;2023-05-12T04:35:30;95795.59;;;9.59;100.00
18167;BME280;9208;42.688;23.404;2023-05-12T04:37:56;95800.13;;;9.71;100.00
18167;BME280;9208;42.688;23.404;2023-05-12T04:40:21;95799.72;;;9.63;100.00
18167;BME280;9208;42.688;23.404;2023-05-12T04:42:47;95794.09;;;9.58;100.00
18167;BME280;9208;42.688;23.404;2023-05-12T04:45:12;95795.16;;;9.60;100.00
18167;BME280;9208;42.688;23.404;2023-05-12T04:47:38;95784.97;;;9.61;100.00
18167;BME280;9208;42.688;23.404;2023-05-12T04:50:04;95793.63;;;9.59;100.00
18167;BME280;9208;42.688;23.404;2023-05-12T04:52:30;95796.25;;;9.54;100.00
18167;BME280;9208;42.688;23.404;2023-05-12T04:54:55;95794.28;;;9.54;100.00
18167;BME280;9208;42.688;23.404;2023-05-12T04:57:21;95805.63;;;9.62;100.00
18167;BME280;9208;42.688;23.404;2023-05-12T04:59:47;95793.19;;;9.61;100.00
18167;BME280;9208;42.688;23.404;2023-05-12T05:02:12;95791.81;;;9.56;100.00
18167;BME280;9208;42.688;23.404;2023-05-12T05:04:38;95803.03;;;9.67;100.00
18167;BME280;9208;42.688;23.404;2023-05-12T05:07:04;95799.81;;;9.78;100.00
18167;BME280;9208;42.688;23.404;2023-05-12T05:09:29;95790.88;;;9.68;100.00
18167;BME280;9208;42.688;23.404;2023-05-12T05:11:55;95802.66;;;9.83;100.00
18167;BME280;9208;42.688;23.404;2023-05-12T05:14:21;95798.75;;;9.75;100.00
18167;BME280;9208;42.688;23.404;2023-05-12T05:16:46;95796.44;;;9.83;100.00
18167;BME280;9208;42.688;23.404;2023-05-12T05:19:13;95799.13;;;9.92;100.00
18167;BME280;9208;42.688;23.404;2023-05-12T05:21:38;95802.00;;;9.88;100.00
18167;BME280;9208;42.688;23.404;2023-05-12T05:24:04;95801.44;;;9.84;100.00
18167;BME280;9208;42.688;23.404;2023-05-12T05:26:29;95796.28;;;9.77;100.00
18167;BME280;9208;42.688;23.404;2023-05-12T05:28:58;95804.69;;;9.97;100.00
18167;BME280;9208;42.688;23.404;2023-05-12T05:31:23;95817.00;;;10.02;100.00
18167;BME280;9208;42.688;23.404;2023-05-12T05:33:49;95822.03;;;10.03;100.00
18167;BME280;9208;42.688;23.404;2023-05-12T05:36:14;95806.06;;;10.02;100.00
18167;BME280;9208;42.688;23.404;2023-05-12T05:38:41;95817.13;;;10.17;100.00
18167;BME280;9208;42.688;23.404;2023-05-12T05:41:06;95820.72;;;10.23;100.00
18167;BME280;9208;42.688;23.404;2023-05-12T05:43:32;95813.69;;;10.31;100.00
18167;BME280;9208;42.688;23.404;2023-05-12T05:45:57;95822.47;;;10.35;100.00
18167;BME280;9208;42.688;23.404;2023-05-12T05:48:23;95815.50;;;10.34;100.00
18167;BME280;9208;42.688;23.404;2023-05-12T05:50:49;95802.72;;;10.31;100.00
18167;BME280;9208;42.688;23.404;2023-05-12T05:53:15;95826.41;;;10.43;100.00
18167;BME280;9208;42.688;23.404;2023-05-12T05:55:42;95825.16;;;10.44;100.00
18167;BME280;9208;42.688;23.404;2023-05-12T05:58:08;95819.03;;;10.49;100.00
18167;BME280;9208;42.688;23.404;2023-05-12T06:00:33;95806.38;;;10.51;100.00
18167;BME280;9208;42.688;23.404;2023-05-12T06:02:59;95823.69;;;10.95;100.00
18167;BME280;9208;42.688;23.404;2023-05-12T06:05:25;95830.69;;;11.25;100.00
18167;BME280;9208;42.688;23.404;2023-05-12T06:07:50;95833.25;;;11.43;100.00
18167;BME280;9208;42.688;23.404;2023-05-12T06:10:15;95825.25;;;11.69;100.00
18167;BME280;9208;42.688;23.404;2023-05-12T06:12:41;95831.56;;;11.89;100.00
18167;BME280;9208;42.688;23.404;2023-05-12T06:15:07;95834.19;;;11.98;100.00
18167;BME280;9208;42.688;23.404;2023-05-12T06:17:33;95837.09;;;12.09;100.00
18167;BME280;9208;42.688;23.404;2023-05-12T06:19:58;95836.41;;;12.14;100.00
18167;BME280;9208;42.688;23.404;2023-05-12T06:22:24;95837.91;;;12.15;100.00
18167;BME280;9208;42.688;23.404;2023-05-12T06:24:49;95847.69;;;12.16;100.00
18167;BME280;9208;42.688;23.404;2023-05-12T06:27:15;95849.81;;;12.27;100.00
18167;BME280;9208;42.688;23.404;2023-05-12T06:29:41;95851.72;;;12.35;100.00
18167;BME280;9208;42.688;23.404;2023-05-12T06:32:06;95852.44;;;12.36;100.00
18167;BME280;9208;42.688;23.404;2023-05-12T06:34:32;95850.47;;;12.36;100.00
18167;BME280;9208;42.688;23.404;2023-05-12T06:36:57;95852.25;;;12.39;100.00
18167;BME280;9208;42.688;23.404;2023-05-12T06:39:23;95851.78;;;12.41;100.00
18167;BME280;9208;42.688;23.404;2023-05-12T06:41:48;95856.84;;;12.28;100.00
18167;BME280;9208;42.688;23.404;2023-05-12T06:44:14;95853.81;;;12.26;100.00
18167;BME280;9208;42.688;23.404;2023-05-12T06:46:39;95853.41;;;12.33;100.00
18167;BME280;9208;42.688;23.404;2023-05-12T06:49:05;95849.69;;;12.36;100.00
18167;BME280;9208;42.688;23.404;2023-05-12T06:51:31;95857.06;;;12.44;100.00
18167;BME280;9208;42.688;23.404;2023-05-12T06:53:58;95851.09;;;12.46;100.00
18167;BME280;9208;42.688;23.404;2023-05-12T06:56:23;95863.44;;;12.36;100.00
18167;BME280;9208;42.688;23.404;2023-05-12T06:58:49;95867.44;;;12.35;100.00
18167;BME280;9208;42.688;23.404;2023-05-12T07:01:14;95862.66;;;12.50;100.00
18167;BME280;9208;42.688;23.404;2023-05-12T07:03:40;95865.19;;;12.53;100.00
18167;BME280;9208;42.688;23.404;2023-05-12T07:06:06;95856.72;;;12.57;100.00
18167;BME280;9208;42.688;23.404;2023-05-12T07:08:32;95848.63;;;12.48;100.00
18167;BME280;9208;42.688;23.404;2023-05-12T07:11:00;95859.78;;;12.59;100.00
18167;BME280;9208;42.688;23.404;2023-05-12T07:13:26;95858.25;;;12.58;100.00
18167;BME280;9208;42.688;23.404;2023-05-12T07:15:51;95859.78;;;12.59;100.00
18167;BME280;9208;42.688;23.404;2023-05-12T07:18:17;95859.09;;;12.64;100.00
18167;BME280;9208;42.688;23.404;2023-05-12T07:20:42;95863.13;;;12.68;100.00
18167;BME280;9208;42.688;23.404;2023-05-12T07:23:10;95864.63;;;12.69;100.00
18167;BME280;9208;42.688;23.404;2023-05-12T07:25:36;95869.75;;;12.76;100.00
18167;BME280;9208;42.688;23.404;2023-05-12T07:28:02;95875.03;;;12.80;100.00
18167;BME280;9208;42.688;23.404;2023-05-12T07:30:27;95857.63;;;12.48;100.00
18167;BME280;9208;42.688;23.404;2023-05-12T07:32:53;95868.00;;;12.39;100.00
18167;BME280;9208;42.688;23.404;2023-05-12T07:35:18;95869.72;;;12.36;100.00
18167;BME280;9208;42.688;23.404;2023-05-12T07:37:44;95859.25;;;12.20;100.00
18167;BME280;9208;42.688;23.404;2023-05-12T07:40:09;95869.13;;;12.12;100.00
18167;BME280;9208;42.688;23.404;2023-05-12T07:42:35;95862.38;;;12.13;100.00
18167;BME280;9208;42.688;23.404;2023-05-12T07:45:00;95865.72;;;12.03;100.00
18167;BME280;9208;42.688;23.404;2023-05-12T07:47:26;95865.50;;;12.06;100.00
18167;BME280;9208;42.688;23.404;2023-05-12T07:49:52;95865.72;;;12.03;100.00
18167;BME280;9208;42.688;23.404;2023-05-12T07:52:18;95862.41;;;11.99;100.00
18167;BME280;9208;42.688;23.404;2023-05-12T07:54:43;95863.81;;;12.09;100.00
18167;BME280;9208;42.688;23.404;2023-05-12T07:57:09;95861.81;;;12.09;100.00
18167;BME280;9208;42.688;23.404;2023-05-12T07:59:35;95865.59;;;12.12;100.00
18167;BME280;9208;42.688;23.404;2023-05-12T08:02:00;95860.31;;;12.08;100.00
18167;BME280;9208;42.688;23.404;2023-05-12T08:04:27;95870.16;;;12.15;100.00
18167;BME280;9208;42.688;23.404;2023-05-12T08:06:52;95847.88;;;12.13;100.00
18167;BME280;9208;42.688;23.404;2023-05-12T08:09:18;95859.59;;;12.28;100.00
18167;BME280;9208;42.688;23.404;2023-05-12T08:11:43;95854.16;;;12.33;100.00
18167;BME280;9208;42.688;23.404;2023-05-12T08:14:09;95856.78;;;12.42;100.00
18167;BME280;9208;42.688;23.404;2023-05-12T08:16:34;95858.25;;;12.38;100.00
18167;BME280;9208;42.688;23.404;2023-05-12T08:19:00;95869.50;;;12.40;100.00
18167;BME280;9208;42.688;23.404;2023-05-12T08:21:25;95871.97;;;12.38;100.00
18167;BME280;9208;42.688;23.404;2023-05-12T08:23:53;95868.00;;;12.39;100.00
18167;BME280;9208;42.688;23.404;2023-05-12T08:26:18;95871.97;;;12.38;100.00
18167;BME280;9208;42.688;23.404;2023-05-12T08:28:44;95867.44;;;12.35;100.00
18167;BME280;9208;42.688;23.404;2023-05-12T08:31:09;95860.31;;;12.43;100.00
18167;BME280;9208;42.688;23.404;2023-05-12T08:33:35;95859.75;;;12.39;100.00
18167;BME280;9208;42.688;23.404;2023-05-12T08:36:01;95869.22;;;12.38;100.00
18167;BME280;9208;42.688;23.404;2023-05-12T08:38:26;95862.69;;;12.35;100.00
18167;BME280;9208;42.688;23.404;2023-05-12T08:43:37;95867.06;;;12.82;100.00
18167;BME280;9208;42.688;23.404;2023-05-12T08:46:06;95865.09;;;13.02;100.00
18167;BME280;9208;42.688;23.404;2023-05-12T08:48:33;95863.94;;;13.14;100.00
18167;BME280;9208;42.688;23.404;2023-05-12T08:51:01;95868.03;;;13.44;100.00
18167;BME280;9208;42.688;23.404;2023-05-12T08:53:28;95852.47;;;13.41;100.00
18167;BME280;9208;42.688;23.404;2023-05-12T08:55:55;95872.78;;;13.44;100.00
18167;BME280;9208;42.688;23.404;2023-05-12T08:58:23;95860.63;;;13.56;100.00
18167;BME280;9208;42.688;23.404;2023-05-12T09:00:49;95879.75;;;13.65;100.00
18167;BME280;9208;42.688;23.404;2023-05-12T09:03:16;95866.41;;;13.32;100.00
18167;BME280;9208;42.688;23.404;2023-05-12T09:05:42;95861.44;;;13.36;100.00
18167;BME280;9208;42.688;23.404;2023-05-12T09:08:09;95870.47;;;13.37;100.00
18167;BME280;9208;42.688;23.404;2023-05-12T09:10:35;95849.56;;;13.25;100.00
18167;BME280;9208;42.688;23.404;2023-05-12T09:15:59;95844.59;;;13.29;100.00
18167;BME280;9208;42.688;23.404;2023-05-12T09:18:42;95840.06;;;13.26;100.00
18167;BME280;9208;42.688;23.404;2023-05-12T09:21:08;95841.50;;;13.21;100.00
18167;BME280;9208;42.688;23.404;2023-05-12T09:23:34;95840.50;;;13.19;100.00
18167;BME280;9208;42.688;23.404;2023-05-12T09:25:59;95849.56;;;13.25;100.00
18167;BME280;9208;42.688;23.404;2023-05-12T09:28:37;95838.22;;;13.17;100.00
18167;BME280;9208;42.688;23.404;2023-05-12T09:31:22;95842.75;;;13.20;100.00
18167;BME280;9208;42.688;23.404;2023-05-12T09:33:49;95840.09;;;13.31;100.00
18167;BME280;9208;42.688;23.404;2023-05-12T09:36:23;95843.88;;;13.34;100.00
18167;BME280;9208;42.688;23.404;2023-05-12T09:39:06;95834.41;;;13.35;100.00
18167;BME280;9208;42.688;23.404;2023-05-12T09:41:36;95824.06;;;13.30;100.00
18167;BME280;9208;42.688;23.404;2023-05-12T09:44:02;95832.44;;;13.41;100.00
18167;BME280;9208;42.688;23.404;2023-05-12T09:46:28;95834.75;;;13.48;100.00
18167;BME280;9208;42.688;23.404;2023-05-12T09:48:57;95830.00;;;13.48;100.00
18167;BME280;9208;42.688;23.404;2023-05-12T09:51:28;95841.56;;;13.52;100.00
18167;BME280;9208;42.688;23.404;2023-05-12T09:53:55;95833.91;;;13.62;100.00
18167;BME280;9208;42.688;23.404;2023-05-12T09:56:20;95839.00;;;13.74;100.00
18167;BME280;9208;42.688;23.404;2023-05-12T09:58:48;95859.84;;;13.81;100.00
18167;BME280;9208;42.688;23.404;2023-05-12T10:01:16;95838.06;;;13.83;100.00
18167;BME280;9208;42.688;23.404;2023-05-12T10:03:44;95839.97;;;14.02;100.00
18167;BME280;9208;42.688;23.404;2023-05-12T10:06:17;95831.91;;;14.30;100.00
18167;BME280;9208;42.688;23.404;2023-05-12T10:11:24;95850.19;;;14.69;98.32
18167;BME280;9208;42.688;23.404;2023-05-12T10:13:53;95845.22;;;14.84;97.22
18167;BME280;9208;42.688;23.404;2023-05-12T10:16:20;95857.34;;;14.98;96.23
18167;BME280;9208;42.688;23.404;2023-05-12T10:18:46;95843.03;;;14.99;96.29
18167;BME280;9208;42.688;23.404;2023-05-12T10:21:13;95854.16;;;15.21;95.57
18167;BME280;9208;42.688;23.404;2023-05-12T10:23:39;95852.38;;;15.29;94.86
18167;BME280;9208;42.688;23.404;2023-05-12T10:26:09;95864.25;;;15.41;93.24
18167;BME280;9208;42.688;23.404;2023-05-12T10:28:36;95874.59;;;15.46;92.26
18167;BME280;9208;42.688;23.404;2023-05-12T10:31:02;95880.59;;;15.50;91.43
18167;BME280;9208;42.688;23.404;2023-05-12T10:33:29;95871.34;;;15.58;91.54
18167;BME280;9208;42.688;23.404;2023-05-12T10:35:55;95879.91;;;15.71;90.83
18167;BME280;9208;42.688;23.404;2023-05-12T10:38:21;95862.56;;;15.76;91.60
18167;BME280;9208;42.688;23.404;2023-05-12T10:40:54;95879.63;;;15.86;90.35
18167;BME280;9208;42.688;23.404;2023-05-12T10:43:23;95886.72;;;15.87;88.48
18167;BME280;9208;42.688;23.404;2023-05-12T10:51:24;95877.88;;;15.94;87.89
18167;BME280;9208;42.688;23.404;2023-05-12T10:54:17;95880.16;;;16.12;86.99
18167;BME280;9208;42.688;23.404;2023-05-12T10:56:43;95888.19;;;16.15;86.17
18167;BME280;9208;42.688;23.404;2023-05-12T10:59:18;95896.75;;;16.28;85.38
18167;BME280;9208;42.688;23.404;2023-05-12T11:02:03;95897.75;;;16.31;84.46
18167;BME280;9208;42.688;23.404;2023-05-12T11:04:43;95907.34;;;16.41;82.65
18167;BME280;9208;42.688;23.404;2023-05-12T11:07:11;95932.50;;;16.43;79.13
18167;BME280;9208;42.688;23.404;2023-05-12T11:09:39;95928.47;;;16.44;78.99
18167;BME280;9208;42.688;23.404;2023-05-12T11:12:06;95958.66;;;16.42;75.84
18167;BME280;9208;42.688;23.404;2023-05-12T11:14:35;95947.56;;;16.53;76.13
18167;BME280;9208;42.688;23.404;2023-05-12T11:17:02;95941.53;;;16.60;75.70
18167;BME280;9208;42.688;23.404;2023-05-12T11:19:28;95960.16;;;16.70;73.47
18167;BME280;9208;42.688;23.404;2023-05-12T11:21:53;95968.97;;;16.74;72.18
18167;BME280;9208;42.688;23.404;2023-05-12T11:24:22;95967.94;;;16.77;72.33
18167;BME280;9208;42.688;23.404;2023-05-12T11:26:48;95965.44;;;16.74;72.58
18167;BME280;9208;42.688;23.404;2023-05-12T11:29:18;95971.19;;;16.81;72.28
18167;BME280;9208;42.688;23.404;2023-05-12T11:31:48;95963.66;;;16.82;72.99
18167;BME280;9208;42.688;23.404;2023-05-12T11:34:14;95963.13;;;16.89;73.33
18167;BME280;9208;42.688;23.404;2023-05-12T11:36:44;95952.56;;;16.87;73.40
18167;BME280;9208;42.688;23.404;2023-05-12T11:39:16;95950.81;;;16.84;73.42
18167;BME280;9208;42.688;23.404;2023-05-12T11:41:43;95943.28;;;16.46;74.04
18167;BME280;9208;42.688;23.404;2023-05-12T11:44:16;95940.78;;;16.32;73.65
18167;BME280;9208;42.688;23.404;2023-05-12T11:46:53;95946.09;;;16.41;72.76
18167;BME280;9208;42.688;23.404;2023-05-12T11:49:19;95956.38;;;16.29;72.44
18167;BME280;9208;42.688;23.404;2023-05-12T11:51:44;95939.03;;;16.18;74.09
18167;BME280;9208;42.688;23.404;2023-05-12T11:54:10;95922.91;;;16.11;74.32
18167;BME280;9208;42.688;23.404;2023-05-12T11:56:35;95920.66;;;16.20;73.62
18167;BME280;9208;42.688;23.404;2023-05-12T11:59:01;95916.88;;;16.34;74.25
18167;BME280;9208;42.688;23.404;2023-05-12T12:01:26;95926.97;;;16.48;73.81
18167;BME280;9208;42.688;23.404;2023-05-12T12:03:53;95931.47;;;16.57;72.37
18167;BME280;9208;42.688;23.404;2023-05-12T12:06:20;95948.56;;;16.61;72.49
18167;BME280;9208;42.688;23.404;2023-05-12T12:08:50;95930.72;;;16.56;73.81
18167;BME280;9208;42.688;23.404;2023-05-12T12:11:22;95889.94;;;16.57;75.86
18167;BME280;9208;42.688;23.404;2023-05-12T12:13:50;95887.69;;;16.61;77.02
18167;BME280;9208;42.688;23.404;2023-05-12T12:16:29;95886.66;;;16.64;76.80
18167;BME280;9208;42.688;23.404;2023-05-12T12:18:55;95889.72;;;16.55;75.91
18167;BME280;9208;42.688;23.404;2023-05-12T12:21:21;95899.00;;;16.57;75.93
18167;BME280;9208;42.688;23.404;2023-05-12T12:23:47;95889.94;;;16.57;76.81
18167;BME280;9208;42.688;23.404;2023-05-12T12:26:13;95904.81;;;16.54;75.53
18167;BME280;9208;42.688;23.404;2023-05-12T12:28:46;95906.31;;;16.55;74.63
18167;BME280;9208;42.688;23.404;2023-05-12T12:31:12;95895.75;;;16.59;76.05
18167;BME280;9208;42.688;23.404;2023-05-12T12:33:38;95894.97;;;16.58;75.79
18167;BME280;9208;42.688;23.404;2023-05-12T12:36:03;95887.69;;;16.61;77.30
18167;BME280;9208;42.688;23.404;2023-05-12T12:38:29;95866.03;;;16.59;78.58
18167;BME280;9208;42.688;23.404;2023-05-12T12:40:55;95857.00;;;16.59;79.35
18167;BME280;9208;42.688;23.404;2023-05-12T12:43:21;95854.47;;;16.55;79.47
18167;BME280;9208;42.688;23.404;2023-05-12T12:45:46;95851.47;;;16.59;79.35
18167;BME280;9208;42.688;23.404;2023-05-12T12:48:12;95867.06;;;16.56;77.84
18167;BME280;9208;42.688;23.404;2023-05-12T12:50:37;95861.53;;;16.56;78.21
18167;BME280;9208;42.688;23.404;2023-05-12T12:53:03;95853.22;;;16.56;78.61
18167;BME280;9208;42.688;23.404;2023-05-12T12:55:29;95864.75;;;16.60;78.51
18167;BME280;9208;42.688;23.404;2023-05-12T12:57:54;95868.06;;;16.59;78.36
18167;BME280;9208;42.688;23.404;2023-05-12T13:00:20;95858.72;;;16.62;78.05
18167;BME280;9208;42.688;23.404;2023-05-12T13:02:47;95856.47;;;16.60;78.50
18167;BME280;9208;42.688;23.404;2023-05-12T13:05:14;95854.72;;;16.46;78.83